sensor_id;sensor_type;location;lat;lon;timestamp;P1;durP1;ratioP1;P2;durP2;ratioP2
13469;SDS011;6807;48.682;9.032;2022-11-20T00:02:50;5.90;;;4.57;;
13469;SDS011;6807;48.682;9.032;2022-11-20T03:06:26;7.22;;;5.18;;
13469;SDS011;6807;48.682;9.032;2022-11-20T03:09:06;6.10;;;5.13;;
13469;SDS011;6807;48.682;9.032;2022-11-20T03:11:34;7.68;;;5.32;;
13469;SDS011;6807;48.682;9.032;2022-11-20T03:21:49;7.10;;;5.03;;
13469;SDS011;6807;48.682;9.032;2022-11-20T03:27:21;7.13;;;5.20;;
13469;SDS011;6807;48.682;9.032;2022-11-20T03:30:19;7.88;;;5.45;;
13469;SDS011;6807;48.682;9.032;2022-11-20T03:46:05;6.43;;;4.78;;
13469;SDS011;6807;48.682;9.032;2022-11-20T03:54:42;5.20;;;4.43;;
13469;SDS011;6807;48.682;9.032;2022-11-20T03:57:19;7.15;;;5.40;;
13469;SDS011;6807;48.682;9.032;2022-11-20T04:00:07;6.30;;;4.63;;
13469;SDS011;6807;48.682;9.032;2022-11-20T04:02:45;8.32;;;4.80;;
13469;SDS011;6807;48.682;9.032;2022-11-20T04:05:29;5.07;;;4.57;;
13469;SDS011;6807;48.682;9.032;2022-11-20T04:08:11;6.72;;;5.35;;
13469;SDS011;6807;48.682;9.032;2022-11-20T04:10:53;6.07;;;5.03;;
13469;SDS011;6807;48.682;9.032;2022-11-20T04:13:48;6.20;;;4.75;;
13469;SDS011;6807;48.682;9.032;2022-11-20T04:16:28;7.90;;;5.30;;
13469;SDS011;6807;48.682;9.032;2022-11-20T04:19:13;7.10;;;5.70;;
13469;SDS011;6807;48.682;9.032;2022-11-20T04:21:59;6.75;;;5.35;;
13469;SDS011;6807;48.682;9.032;2022-11-20T04:24:31;6.95;;;5.25;;
13469;SDS011;6807;48.682;9.032;2022-11-20T04:27:18;6.50;;;5.15;;
13469;SDS011;6807;48.682;9.032;2022-11-20T04:30:05;6.28;;;5.20;;
13469;SDS011;6807;48.682;9.032;2022-11-20T04:32:49;5.68;;;4.60;;
13469;SDS011;6807;48.682;9.032;2022-11-20T04:35:29;7.07;;;4.80;;
13469;SDS011;6807;48.682;9.032;2022-11-20T04:38:28;7.95;;;4.60;;
13469;SDS011;6807;48.682;9.032;2022-11-20T04:43:52;4.90;;;4.40;;
13469;SDS011;6807;48.682;9.032;2022-11-20T04:44:39;6.38;;;4.22;;
13469;SDS011;6807;48.682;9.032;2022-11-20T04:47:34;5.38;;;4.45;;
13469;SDS011;6807;48.682;9.032;2022-11-20T04:50:08;6.78;;;4.60;;
13469;SDS011;6807;48.682;9.032;2022-11-20T04:52:58;5.72;;;3.92;;
13469;SDS011;6807;48.682;9.032;2022-11-20T05:04:21;4.63;;;4.13;;
13469;SDS011;6807;48.682;9.032;2022-11-20T05:07:11;5.03;;;4.53;;
13469;SDS011;6807;48.682;9.032;2022-11-20T05:16:25;6.65;;;4.00;;
13469;SDS011;6807;48.682;9.032;2022-11-20T05:41:13;6.40;;;3.85;;
13469;SDS011;6807;48.682;9.032;2022-11-20T05:44:00;5.03;;;3.65;;
13469;SDS011;6807;48.682;9.032;2022-11-20T05:49:49;5.13;;;3.40;;
13469;SDS011;6807;48.682;9.032;2022-11-20T05:52:51;3.78;;;3.15;;
13469;SDS011;6807;48.682;9.032;2022-11-20T05:55:24;4.78;;;3.35;;
13469;SDS011;6807;48.682;9.032;2022-11-20T06:01:10;4.03;;;3.65;;
13469;SDS011;6807;48.682;9.032;2022-11-20T06:03:49;4.82;;;4.43;;
13469;SDS011;6807;48.682;9.032;2022-11-20T06:07:11;3.88;;;3.42;;
13469;SDS011;6807;48.682;9.032;2022-11-20T06:09:37;3.15;;;2.40;;
13469;SDS011;6807;48.682;9.032;2022-11-20T06:34:09;3.72;;;3.33;;
13469;SDS011;6807;48.682;9.032;2022-11-20T06:36:48;4.85;;;3.70;;
13469;SDS011;6807;48.682;9.032;2022-11-20T06:39:21;3.53;;;3.22;;
13469;SDS011;6807;48.682;9.032;2022-11-20T06:42:01;3.30;;;3.03;;
13469;SDS011;6807;48.682;9.032;2022-11-20T06:45:00;4.80;;;3.47;;
13469;SDS011;6807;48.682;9.032;2022-11-20T06:47:44;3.92;;;3.50;;
13469;SDS011;6807;48.682;9.032;2022-11-20T06:50:15;3.40;;;3.08;;
13469;SDS011;6807;48.682;9.032;2022-11-20T06:58:42;3.63;;;3.33;;
13469;SDS011;6807;48.682;9.032;2022-11-20T07:01:29;3.95;;;3.55;;
13469;SDS011;6807;48.682;9.032;2022-11-20T07:04:00;3.85;;;3.45;;
13469;SDS011;6807;48.682;9.032;2022-11-20T07:12:40;3.45;;;3.15;;
13469;SDS011;6807;48.682;9.032;2022-11-20T07:15:09;4.78;;;3.40;;
13469;SDS011;6807;48.682;9.032;2022-11-20T07:17:36;3.42;;;3.10;;
13469;SDS011;6807;48.682;9.032;2022-11-20T07:20:04;3.47;;;2.95;;
13469;SDS011;6807;48.682;9.032;2022-11-20T07:22:31;3.17;;;2.88;;
13469;SDS011;6807;48.682;9.032;2022-11-20T07:24:59;3.67;;;3.38;;
13469;SDS011;6807;48.682;9.032;2022-11-20T07:27:26;3.28;;;2.80;;
13469;SDS011;6807;48.682;9.032;2022-11-20T07:29:55;3.75;;;3.05;;
13469;SDS011;6807;48.682;9.032;2022-11-20T07:32:23;3.00;;;2.75;;
13469;SDS011;6807;48.682;9.032;2022-11-20T07:34:50;3.40;;;3.10;;
13469;SDS011;6807;48.682;9.032;2022-11-20T07:37:18;3.25;;;2.90;;
13469;SDS011;6807;48.682;9.032;2022-11-20T07:39:45;3.10;;;2.72;;
13469;SDS011;6807;48.682;9.032;2022-11-20T07:42:26;3.03;;;2.67;;
13469;SDS011;6807;48.682;9.032;2022-11-20T07:45:02;3.10;;;2.80;;
13469;SDS011;6807;48.682;9.032;2022-11-20T07:47:34;5.13;;;2.97;;
13469;SDS011;6807;48.682;9.032;2022-11-20T07:50:02;3.45;;;2.50;;
13469;SDS011;6807;48.682;9.032;2022-11-20T07:52:29;2.92;;;2.70;;
13469;SDS011;6807;48.682;9.032;2022-11-20T07:54:58;3.35;;;2.53;;
13469;SDS011;6807;48.682;9.032;2022-11-20T07:57:26;3.83;;;2.58;;
13469;SDS011;6807;48.682;9.032;2022-11-20T07:59:55;3.25;;;2.83;;
13469;SDS011;6807;48.682;9.032;2022-11-20T08:02:24;2.90;;;2.67;;
13469;SDS011;6807;48.682;9.032;2022-11-20T08:04:51;2.75;;;2.55;;
13469;SDS011;6807;48.682;9.032;2022-11-20T08:07:20;2.63;;;2.42;;
13469;SDS011;6807;48.682;9.032;2022-11-20T08:09:47;2.53;;;2.33;;
13469;SDS011;6807;48.682;9.032;2022-11-20T08:12:16;2.60;;;2.40;;
13469;SDS011;6807;48.682;9.032;2022-11-20T08:15:18;2.75;;;2.50;;
13469;SDS011;6807;48.682;9.032;2022-11-20T08:17:59;1.90;;;1.80;;
13469;SDS011;6807;48.682;9.032;2022-11-20T08:20:29;3.28;;;2.30;;
13469;SDS011;6807;48.682;9.032;2022-11-20T08:23:00;4.18;;;2.50;;
13469;SDS011;6807;48.682;9.032;2022-11-20T08:25:27;2.72;;;2.20;;
13469;SDS011;6807;48.682;9.032;2022-11-20T08:27:56;2.50;;;2.30;;
13469;SDS011;6807;48.682;9.032;2022-11-20T08:30:24;2.30;;;2.10;;
13469;SDS011;6807;48.682;9.032;2022-11-20T08:32:51;2.67;;;2.47;;
13469;SDS011;6807;48.682;9.032;2022-11-20T08:35:20;3.63;;;2.30;;
13469;SDS011;6807;48.682;9.032;2022-11-20T08:37:49;3.05;;;2.75;;
13469;SDS011;6807;48.682;9.032;2022-11-20T08:40:16;3.50;;;1.90;;
13469;SDS011;6807;48.682;9.032;2022-11-20T08:42:48;3.25;;;2.28;;
13469;SDS011;6807;48.682;9.032;2022-11-20T08:45:16;2.65;;;2.45;;
13469;SDS011;6807;48.682;9.032;2022-11-20T08:47:44;2.70;;;2.00;;
13469;SDS011;6807;48.682;9.032;2022-11-20T08:50:12;2.20;;;2.10;;
13469;SDS011;6807;48.682;9.032;2022-11-20T08:52:44;3.08;;;1.88;;
13469;SDS011;6807;48.682;9.032;2022-11-20T08:55:11;2.28;;;2.17;;
13469;SDS011;6807;48.682;9.032;2022-11-20T08:57:39;1.63;;;1.50;;
13469;SDS011;6807;48.682;9.032;2022-11-20T09:00:06;1.42;;;1.33;;
13469;SDS011;6807;48.682;9.032;2022-11-20T09:02:34;2.10;;;1.90;;
13469;SDS011;6807;48.682;9.032;2022-11-20T09:05:02;2.20;;;2.00;;
13469;SDS011;6807;48.682;9.032;2022-11-20T09:07:29;3.00;;;1.70;;
13469;SDS011;6807;48.682;9.032;2022-11-20T09:09:58;2.45;;;1.58;;
13469;SDS011;6807;48.682;9.032;2022-11-20T09:12:25;1.80;;;1.70;;
13469;SDS011;6807;48.682;9.032;2022-11-20T09:14:52;2.63;;;1.98;;
13469;SDS011;6807;48.682;9.032;2022-11-20T09:17:19;1.65;;;1.55;;
13469;SDS011;6807;48.682;9.032;2022-11-20T09:19:47;1.60;;;1.50;;
13469;SDS011;6807;48.682;9.032;2022-11-20T09:22:14;2.00;;;1.75;;
13469;SDS011;6807;48.682;9.032;2022-11-20T09:24:41;1.95;;;1.77;;
13469;SDS011;6807;48.682;9.032;2022-11-20T09:27:10;2.05;;;1.83;;
13469;SDS011;6807;48.682;9.032;2022-11-20T09:29:37;1.77;;;1.67;;
13469;SDS011;6807;48.682;9.032;2022-11-20T09:32:04;1.75;;;1.65;;
13469;SDS011;6807;48.682;9.032;2022-11-20T09:34:32;1.48;;;1.38;;
13469;SDS011;6807;48.682;9.032;2022-11-20T09:36:59;1.63;;;1.52;;
13469;SDS011;6807;48.682;9.032;2022-11-20T09:39:26;1.70;;;1.60;;
13469;SDS011;6807;48.682;9.032;2022-11-20T09:42:01;1.50;;;1.40;;
13469;SDS011;6807;48.682;9.032;2022-11-20T09:44:39;1.60;;;1.50;;
13469;SDS011;6807;48.682;9.032;2022-11-20T09:47:16;1.40;;;1.30;;
13469;SDS011;6807;48.682;9.032;2022-11-20T09:49:57;1.50;;;1.40;;
13469;SDS011;6807;48.682;9.032;2022-11-20T09:52:27;1.60;;;1.50;;
13469;SDS011;6807;48.682;9.032;2022-11-20T09:55:01;1.40;;;1.30;;
13469;SDS011;6807;48.682;9.032;2022-11-20T09:57:30;1.52;;;1.40;;
13469;SDS011;6807;48.682;9.032;2022-11-20T10:00:06;2.08;;;1.30;;
13469;SDS011;6807;48.682;9.032;2022-11-20T10:02:35;1.40;;;1.20;;
13469;SDS011;6807;48.682;9.032;2022-11-20T10:05:09;1.40;;;1.30;;
13469;SDS011;6807;48.682;9.032;2022-11-20T10:07:39;1.50;;;1.40;;
13469;SDS011;6807;48.682;9.032;2022-11-20T10:10:13;1.45;;;1.35;;
13469;SDS011;6807;48.682;9.032;2022-11-20T10:12:45;1.40;;;1.33;;
13469;SDS011;6807;48.682;9.032;2022-11-20T10:15:22;1.17;;;1.17;;
13469;SDS011;6807;48.682;9.032;2022-11-20T10:18:02;1.60;;;1.50;;
13469;SDS011;6807;48.682;9.032;2022-11-20T10:20:33;1.30;;;1.20;;
13469;SDS011;6807;48.682;9.032;2022-11-20T10:23:18;1.33;;;1.23;;
13469;SDS011;6807;48.682;9.032;2022-11-20T10:25:47;1.45;;;1.35;;
13469;SDS011;6807;48.682;9.032;2022-11-20T10:28:19;1.48;;;1.38;;
13469;SDS011;6807;48.682;9.032;2022-11-20T10:30:55;3.67;;;1.50;;
13469;SDS011;6807;48.682;9.032;2022-11-20T10:33:24;1.90;;;1.70;;
13469;SDS011;6807;48.682;9.032;2022-11-20T10:35:52;1.60;;;1.50;;
13469;SDS011;6807;48.682;9.032;2022-11-20T10:38:24;3.72;;;2.45;;
13469;SDS011;6807;48.682;9.032;2022-11-20T10:40:53;1.70;;;1.60;;
13469;SDS011;6807;48.682;9.032;2022-11-20T10:43:44;2.30;;;1.90;;
13469;SDS011;6807;48.682;9.032;2022-11-20T10:46:15;2.92;;;2.72;;
13469;SDS011;6807;48.682;9.032;2022-11-20T10:48:42;3.00;;;2.22;;
13469;SDS011;6807;48.682;9.032;2022-11-20T10:51:12;4.57;;;4.18;;
13469;SDS011;6807;48.682;9.032;2022-11-20T10:53:51;3.83;;;3.53;;
13469;SDS011;6807;48.682;9.032;2022-11-20T10:56:22;2.97;;;2.38;;
13469;SDS011;6807;48.682;9.032;2022-11-20T10:58:58;2.20;;;2.00;;
13469;SDS011;6807;48.682;9.032;2022-11-20T11:01:28;2.97;;;1.92;;
13469;SDS011;6807;48.682;9.032;2022-11-20T11:03:56;3.95;;;2.20;;
13469;SDS011;6807;48.682;9.032;2022-11-20T11:06:25;1.92;;;1.83;;
13469;SDS011;6807;48.682;9.032;2022-11-20T11:08:56;3.40;;;1.85;;
13469;SDS011;6807;48.682;9.032;2022-11-20T11:11:24;1.88;;;1.77;;
13469;SDS011;6807;48.682;9.032;2022-11-20T11:13:52;2.50;;;2.30;;
13469;SDS011;6807;48.682;9.032;2022-11-20T11:16:20;5.55;;;1.98;;
13469;SDS011;6807;48.682;9.032;2022-11-20T11:18:50;1.80;;;1.70;;
13469;SDS011;6807;48.682;9.032;2022-11-20T11:21:21;2.15;;;1.80;;
13469;SDS011;6807;48.682;9.032;2022-11-20T11:23:56;1.80;;;1.70;;
13469;SDS011;6807;48.682;9.032;2022-11-20T11:26:24;2.35;;;1.85;;
13469;SDS011;6807;48.682;9.032;2022-11-20T11:28:55;2.85;;;1.83;;
13469;SDS011;6807;48.682;9.032;2022-11-20T11:31:24;2.17;;;1.95;;
13469;SDS011;6807;48.682;9.032;2022-11-20T11:34:02;2.35;;;1.73;;
13469;SDS011;6807;48.682;9.032;2022-11-20T11:36:30;2.47;;;1.58;;
13469;SDS011;6807;48.682;9.032;2022-11-20T11:38:57;2.38;;;1.63;;
13469;SDS011;6807;48.682;9.032;2022-11-20T11:41:25;2.70;;;1.63;;
13469;SDS011;6807;48.682;9.032;2022-11-20T11:43:57;3.38;;;1.70;;
13469;SDS011;6807;48.682;9.032;2022-11-20T11:46:44;5.07;;;2.30;;
13469;SDS011;6807;48.682;9.032;2022-11-20T11:49:16;1.55;;;1.30;;
13469;SDS011;6807;48.682;9.032;2022-11-20T11:51:46;2.33;;;1.52;;
13469;SDS011;6807;48.682;9.032;2022-11-20T11:54:15;2.70;;;1.60;;
13469;SDS011;6807;48.682;9.032;2022-11-20T11:56:43;1.50;;;1.40;;
13469;SDS011;6807;48.682;9.032;2022-11-20T11:59:12;1.75;;;1.40;;
13469;SDS011;6807;48.682;9.032;2022-11-20T12:01:42;2.17;;;1.60;;
13469;SDS011;6807;48.682;9.032;2022-11-20T12:06:37;1.50;;;1.40;;
13469;SDS011;6807;48.682;9.032;2022-11-20T12:09:08;2.83;;;1.50;;
13469;SDS011;6807;48.682;9.032;2022-11-20T12:11:37;2.35;;;1.50;;
13469;SDS011;6807;48.682;9.032;2022-11-20T12:14:09;1.67;;;1.30;;
13469;SDS011;6807;48.682;9.032;2022-11-20T12:16:38;2.80;;;1.30;;
13469;SDS011;6807;48.682;9.032;2022-11-20T12:19:08;3.15;;;1.50;;
13469;SDS011;6807;48.682;9.032;2022-11-20T12:21:40;2.20;;;1.63;;
13469;SDS011;6807;48.682;9.032;2022-11-20T12:24:19;2.20;;;1.60;;
13469;SDS011;6807;48.682;9.032;2022-11-20T12:26:54;2.50;;;1.70;;
13469;SDS011;6807;48.682;9.032;2022-11-20T12:29:27;1.77;;;1.40;;
13469;SDS011;6807;48.682;9.032;2022-11-20T12:34:57;2.17;;;1.45;;
13469;SDS011;6807;48.682;9.032;2022-11-20T12:37:32;1.83;;;1.52;;
13469;SDS011;6807;48.682;9.032;2022-11-20T12:40:02;2.67;;;1.40;;
13469;SDS011;6807;48.682;9.032;2022-11-20T12:42:40;2.25;;;1.42;;
13469;SDS011;6807;48.682;9.032;2022-11-20T12:45:52;4.80;;;1.40;;
13469;SDS011;6807;48.682;9.032;2022-11-20T12:51:07;5.47;;;1.83;;
13469;SDS011;6807;48.682;9.032;2022-11-20T12:53:40;1.08;;;1.00;;
13469;SDS011;6807;48.682;9.032;2022-11-20T12:56:12;2.20;;;1.38;;
13469;SDS011;6807;48.682;9.032;2022-11-20T12:58:46;3.45;;;3.13;;
13469;SDS011;6807;48.682;9.032;2022-11-20T13:01:25;1.48;;;1.38;;
13469;SDS011;6807;48.682;9.032;2022-11-20T13:04:08;1.23;;;1.17;;
13469;SDS011;6807;48.682;9.032;2022-11-20T13:06:46;1.30;;;1.20;;
13469;SDS011;6807;48.682;9.032;2022-11-20T13:09:15;1.17;;;1.08;;
13469;SDS011;6807;48.682;9.032;2022-11-20T13:11:43;2.05;;;1.45;;
13469;SDS011;6807;48.682;9.032;2022-11-20T13:14:14;1.10;;;1.10;;
13469;SDS011;6807;48.682;9.032;2022-11-20T13:16:45;1.38;;;1.27;;
13469;SDS011;6807;48.682;9.032;2022-11-20T13:19:16;3.00;;;1.58;;
13469;SDS011;6807;48.682;9.032;2022-11-20T13:21:45;2.13;;;1.30;;
13469;SDS011;6807;48.682;9.032;2022-11-20T13:24:22;1.98;;;1.40;;
13469;SDS011;6807;48.682;9.032;2022-11-20T13:27:04;1.73;;;1.17;;
13469;SDS011;6807;48.682;9.032;2022-11-20T13:29:32;2.45;;;1.50;;
13469;SDS011;6807;48.682;9.032;2022-11-20T13:32:03;1.40;;;1.30;;
13469;SDS011;6807;48.682;9.032;2022-11-20T13:34:32;1.95;;;1.63;;
13469;SDS011;6807;48.682;9.032;2022-11-20T13:37:01;3.70;;;1.65;;
13469;SDS011;6807;48.682;9.032;2022-11-20T13:39:32;1.83;;;1.27;;
13469;SDS011;6807;48.682;9.032;2022-11-20T13:42:00;2.88;;;1.50;;
13469;SDS011;6807;48.682;9.032;2022-11-20T13:44:30;1.50;;;1.40;;
13469;SDS011;6807;48.682;9.032;2022-11-20T13:47:00;4.03;;;1.60;;
13469;SDS011;6807;48.682;9.032;2022-11-20T13:49:29;1.45;;;1.33;;
13469;SDS011;6807;48.682;9.032;2022-11-20T13:52:05;1.65;;;1.40;;
13469;SDS011;6807;48.682;9.032;2022-11-20T13:54:50;1.63;;;1.30;;
13469;SDS011;6807;48.682;9.032;2022-11-20T14:00:03;1.50;;;1.20;;
13469;SDS011;6807;48.682;9.032;2022-11-20T14:02:31;1.55;;;1.40;;
13469;SDS011;6807;48.682;9.032;2022-11-20T14:04:59;1.67;;;1.40;;
13469;SDS011;6807;48.682;9.032;2022-11-20T14:07:31;3.22;;;1.50;;
13469;SDS011;6807;48.682;9.032;2022-11-20T14:10:03;1.60;;;1.50;;
13469;SDS011;6807;48.682;9.032;2022-11-20T14:12:31;2.97;;;1.63;;
13469;SDS011;6807;48.682;9.032;2022-11-20T14:14:59;4.80;;;1.80;;
13469;SDS011;6807;48.682;9.032;2022-11-20T14:17:30;1.60;;;1.50;;
13469;SDS011;6807;48.682;9.032;2022-11-20T14:19:58;2.58;;;1.60;;
13469;SDS011;6807;48.682;9.032;2022-11-20T14:22:26;2.42;;;1.70;;
13469;SDS011;6807;48.682;9.032;2022-11-20T14:25:00;1.70;;;1.60;;
13469;SDS011;6807;48.682;9.032;2022-11-20T14:27:32;2.05;;;1.40;;
13469;SDS011;6807;48.682;9.032;2022-11-20T14:30:02;1.60;;;1.40;;
13469;SDS011;6807;48.682;9.032;2022-11-20T14:32:30;1.98;;;1.50;;
13469;SDS011;6807;48.682;9.032;2022-11-20T14:34:59;2.00;;;1.80;;
13469;SDS011;6807;48.682;9.032;2022-11-20T14:37:33;1.70;;;1.60;;
13469;SDS011;6807;48.682;9.032;2022-11-20T14:40:01;1.85;;;1.67;;
13469;SDS011;6807;48.682;9.032;2022-11-20T14:42:30;1.88;;;1.75;;
13469;SDS011;6807;48.682;9.032;2022-11-20T14:44:57;2.03;;;1.65;;
13469;SDS011;6807;48.682;9.032;2022-11-20T14:47:26;3.25;;;1.67;;
13469;SDS011;6807;48.682;9.032;2022-11-20T14:49:54;1.85;;;1.70;;
13469;SDS011;6807;48.682;9.032;2022-11-20T14:52:23;1.67;;;1.52;;
13469;SDS011;6807;48.682;9.032;2022-11-20T14:54:51;2.42;;;1.58;;
13469;SDS011;6807;48.682;9.032;2022-11-20T14:57:23;1.63;;;1.52;;
13469;SDS011;6807;48.682;9.032;2022-11-20T14:59:51;1.42;;;1.33;;
13469;SDS011;6807;48.682;9.032;2022-11-20T15:02:30;1.60;;;1.50;;
13469;SDS011;6807;48.682;9.032;2022-11-20T15:04:57;2.08;;;1.40;;
13469;SDS011;6807;48.682;9.032;2022-11-20T15:07:28;2.33;;;1.50;;
13469;SDS011;6807;48.682;9.032;2022-11-20T15:10:00;4.90;;;2.30;;
13469;SDS011;6807;48.682;9.032;2022-11-20T15:12:27;3.08;;;1.60;;
13469;SDS011;6807;48.682;9.032;2022-11-20T15:14:57;3.35;;;1.70;;
13469;SDS011;6807;48.682;9.032;2022-11-20T15:17:24;2.15;;;1.90;;
13469;SDS011;6807;48.682;9.032;2022-11-20T15:19:52;1.63;;;1.52;;
13469;SDS011;6807;48.682;9.032;2022-11-20T15:22:19;3.45;;;1.50;;
13469;SDS011;6807;48.682;9.032;2022-11-20T15:24:46;1.65;;;1.40;;
13469;SDS011;6807;48.682;9.032;2022-11-20T15:27:14;1.85;;;1.60;;
13469;SDS011;6807;48.682;9.032;2022-11-20T15:29:41;2.20;;;2.00;;
13469;SDS011;6807;48.682;9.032;2022-11-20T15:32:10;1.75;;;1.65;;
13469;SDS011;6807;48.682;9.032;2022-11-20T15:34:37;2.38;;;2.17;;
13469;SDS011;6807;48.682;9.032;2022-11-20T15:37:04;3.03;;;2.28;;
13469;SDS011;6807;48.682;9.032;2022-11-20T15:39:32;2.88;;;2.53;;
13469;SDS011;6807;48.682;9.032;2022-11-20T15:41:59;4.85;;;2.40;;
13469;SDS011;6807;48.682;9.032;2022-11-20T15:47:02;5.68;;;4.10;;
13469;SDS011;6807;48.682;9.032;2022-11-20T15:49:47;9.35;;;4.15;;
13469;SDS011;6807;48.682;9.032;2022-11-20T15:52:14;6.13;;;4.85;;
13469;SDS011;6807;48.682;9.032;2022-11-20T15:54:42;6.85;;;5.57;;
13469;SDS011;6807;48.682;9.032;2022-11-20T15:57:09;5.80;;;4.13;;
13469;SDS011;6807;48.682;9.032;2022-11-20T15:59:38;9.20;;;6.97;;
13469;SDS011;6807;48.682;9.032;2022-11-20T16:02:08;3.33;;;2.40;;
13469;SDS011;6807;48.682;9.032;2022-11-20T16:04:36;6.50;;;4.97;;
13469;SDS011;6807;48.682;9.032;2022-11-20T16:07:04;4.63;;;3.50;;
13469;SDS011;6807;48.682;9.032;2022-11-20T16:09:31;5.10;;;4.68;;
13469;SDS011;6807;48.682;9.032;2022-11-20T16:11:59;15.27;;;13.98;;
13469;SDS011;6807;48.682;9.032;2022-11-20T16:14:26;9.80;;;9.00;;
13469;SDS011;6807;48.682;9.032;2022-11-20T16:17:11;3.25;;;2.95;;
13469;SDS011;6807;48.682;9.032;2022-11-20T16:19:39;3.08;;;2.75;;
13469;SDS011;6807;48.682;9.032;2022-11-20T16:22:11;3.70;;;2.22;;
13469;SDS011;6807;48.682;9.032;2022-11-20T16:24:39;2.45;;;2.25;;
13469;SDS011;6807;48.682;9.032;2022-11-20T16:27:06;2.75;;;2.47;;
13469;SDS011;6807;48.682;9.032;2022-11-20T16:29:35;2.60;;;2.05;;
13469;SDS011;6807;48.682;9.032;2022-11-20T16:32:02;3.40;;;3.08;;
13469;SDS011;6807;48.682;9.032;2022-11-20T16:34:29;3.63;;;2.70;;
13469;SDS011;6807;48.682;9.032;2022-11-20T16:36:56;2.05;;;1.95;;
13469;SDS011;6807;48.682;9.032;2022-11-20T16:39:25;2.90;;;2.60;;
13469;SDS011;6807;48.682;9.032;2022-11-20T16:41:53;2.65;;;2.38;;
13469;SDS011;6807;48.682;9.032;2022-11-20T16:44:20;2.95;;;2.13;;
13469;SDS011;6807;48.682;9.032;2022-11-20T16:46:47;4.50;;;2.20;;
13469;SDS011;6807;48.682;9.032;2022-11-20T16:49:14;3.90;;;2.25;;
13469;SDS011;6807;48.682;9.032;2022-11-20T16:51:57;2.13;;;1.90;;
13469;SDS011;6807;48.682;9.032;2022-11-20T16:57:36;3.50;;;2.13;;
13469;SDS011;6807;48.682;9.032;2022-11-20T17:00:05;2.50;;;2.30;;
13469;SDS011;6807;48.682;9.032;2022-11-20T17:02:32;2.60;;;2.40;;
13469;SDS011;6807;48.682;9.032;2022-11-20T17:05:01;2.47;;;2.28;;
13469;SDS011;6807;48.682;9.032;2022-11-20T17:07:29;2.35;;;2.15;;
13469;SDS011;6807;48.682;9.032;2022-11-20T17:09:56;2.85;;;2.30;;
13469;SDS011;6807;48.682;9.032;2022-11-20T17:12:24;2.63;;;2.38;;
13469;SDS011;6807;48.682;9.032;2022-11-20T17:14:53;3.72;;;2.50;;
13469;SDS011;6807;48.682;9.032;2022-11-20T17:17:20;5.15;;;3.00;;
13469;SDS011;6807;48.682;9.032;2022-11-20T17:19:47;6.63;;;4.03;;
13469;SDS011;6807;48.682;9.032;2022-11-20T17:22:15;3.78;;;2.92;;
13469;SDS011;6807;48.682;9.032;2022-11-20T17:24:43;4.57;;;3.30;;
13469;SDS011;6807;48.682;9.032;2022-11-20T17:27:10;9.70;;;5.00;;
13469;SDS011;6807;48.682;9.032;2022-11-20T17:29:37;5.68;;;3.33;;
13469;SDS011;6807;48.682;9.032;2022-11-20T17:32:07;3.25;;;2.38;;
13469;SDS011;6807;48.682;9.032;2022-11-20T17:34:34;3.03;;;2.72;;
13469;SDS011;6807;48.682;9.032;2022-11-20T17:37:01;2.85;;;2.13;;
13469;SDS011;6807;48.682;9.032;2022-11-20T17:39:29;5.00;;;2.72;;
13469;SDS011;6807;48.682;9.032;2022-11-20T17:41:56;2.72;;;2.05;;
13469;SDS011;6807;48.682;9.032;2022-11-20T17:44:41;2.38;;;2.17;;
13469;SDS011;6807;48.682;9.032;2022-11-20T17:47:10;2.47;;;2.03;;
13469;SDS011;6807;48.682;9.032;2022-11-20T17:49:37;2.85;;;2.38;;
13469;SDS011;6807;48.682;9.032;2022-11-20T17:52:05;4.57;;;2.53;;
13469;SDS011;6807;48.682;9.032;2022-11-20T17:54:32;4.75;;;3.03;;
13469;SDS011;6807;48.682;9.032;2022-11-20T17:56:59;2.78;;;2.33;;
13469;SDS011;6807;48.682;9.032;2022-11-20T17:59:44;3.35;;;2.20;;
13469;SDS011;6807;48.682;9.032;2022-11-20T18:02:13;2.05;;;1.85;;
13469;SDS011;6807;48.682;9.032;2022-11-20T18:04:41;2.58;;;2.15;;
13469;SDS011;6807;48.682;9.032;2022-11-20T18:07:09;2.42;;;2.03;;
13469;SDS011;6807;48.682;9.032;2022-11-20T18:09:37;2.58;;;2.38;;
13469;SDS011;6807;48.682;9.032;2022-11-20T18:12:04;2.10;;;1.88;;
13469;SDS011;6807;48.682;9.032;2022-11-20T18:14:32;2.35;;;2.15;;
13469;SDS011;6807;48.682;9.032;2022-11-20T18:17:01;2.17;;;1.98;;
13469;SDS011;6807;48.682;9.032;2022-11-20T18:19:31;2.00;;;1.80;;
13469;SDS011;6807;48.682;9.032;2022-11-20T18:21:58;2.97;;;2.25;;
13469;SDS011;6807;48.682;9.032;2022-11-20T18:24:28;2.60;;;2.05;;
13469;SDS011;6807;48.682;9.032;2022-11-20T18:26:55;2.47;;;2.17;;
13469;SDS011;6807;48.682;9.032;2022-11-20T18:29:23;2.28;;;2.08;;
13469;SDS011;6807;48.682;9.032;2022-11-20T18:31:51;2.20;;;2.00;;
13469;SDS011;6807;48.682;9.032;2022-11-20T18:34:18;2.33;;;2.13;;
13469;SDS011;6807;48.682;9.032;2022-11-20T18:36:47;1.70;;;1.60;;
13469;SDS011;6807;48.682;9.032;2022-11-20T18:39:15;2.22;;;1.90;;
13469;SDS011;6807;48.682;9.032;2022-11-20T18:41:42;3.47;;;2.35;;
13469;SDS011;6807;48.682;9.032;2022-11-20T18:44:28;6.50;;;2.22;;
13469;SDS011;6807;48.682;9.032;2022-11-20T18:47:16;1.80;;;1.70;;
13469;SDS011;6807;48.682;9.032;2022-11-20T18:49:47;3.83;;;2.35;;
13469;SDS011;6807;48.682;9.032;2022-11-20T18:52:26;5.53;;;2.05;;
13469;SDS011;6807;48.682;9.032;2022-11-20T18:55:03;1.50;;;1.40;;
13469;SDS011;6807;48.682;9.032;2022-11-20T18:57:57;1.98;;;1.88;;
13469;SDS011;6807;48.682;9.032;2022-11-20T19:00:25;2.30;;;1.80;;
13469;SDS011;6807;48.682;9.032;2022-11-20T19:05:41;1.60;;;1.50;;
13469;SDS011;6807;48.682;9.032;2022-11-20T19:08:09;1.50;;;1.40;;
13469;SDS011;6807;48.682;9.032;2022-11-20T19:10:37;2.03;;;1.92;;
13469;SDS011;6807;48.682;9.032;2022-11-20T19:13:04;1.77;;;1.40;;
13469;SDS011;6807;48.682;9.032;2022-11-20T19:15:31;1.30;;;1.30;;
13469;SDS011;6807;48.682;9.032;2022-11-20T19:18:01;1.48;;;1.38;;
13469;SDS011;6807;48.682;9.032;2022-11-20T19:20:28;1.30;;;1.20;;
13469;SDS011;6807;48.682;9.032;2022-11-20T19:22:55;1.30;;;1.20;;
13469;SDS011;6807;48.682;9.032;2022-11-20T19:25:24;1.40;;;1.30;;
13469;SDS011;6807;48.682;9.032;2022-11-20T19:27:51;1.48;;;1.38;;
13469;SDS011;6807;48.682;9.032;2022-11-20T19:30:19;1.40;;;1.30;;
13469;SDS011;6807;48.682;9.032;2022-11-20T19:32:47;1.85;;;1.58;;
13469;SDS011;6807;48.682;9.032;2022-11-20T19:35:14;1.65;;;1.55;;
13469;SDS011;6807;48.682;9.032;2022-11-20T19:37:42;2.20;;;1.52;;
13469;SDS011;6807;48.682;9.032;2022-11-20T19:40:09;3.60;;;1.30;;
13469;SDS011;6807;48.682;9.032;2022-11-20T19:42:38;1.75;;;1.60;;
13469;SDS011;6807;48.682;9.032;2022-11-20T19:45:12;1.40;;;1.30;;
13469;SDS011;6807;48.682;9.032;2022-11-20T19:47:51;1.20;;;1.20;;
13469;SDS011;6807;48.682;9.032;2022-11-20T19:50:19;1.30;;;1.20;;
13469;SDS011;6807;48.682;9.032;2022-11-20T19:52:46;1.88;;;1.30;;
13469;SDS011;6807;48.682;9.032;2022-11-20T19:55:13;1.27;;;1.17;;
13469;SDS011;6807;48.682;9.032;2022-11-20T19:57:42;1.50;;;1.40;;
13469;SDS011;6807;48.682;9.032;2022-11-20T20:00:10;1.20;;;1.20;;
13469;SDS011;6807;48.682;9.032;2022-11-20T20:02:38;1.40;;;1.30;;
13469;SDS011;6807;48.682;9.032;2022-11-20T20:05:06;1.23;;;1.15;;
13469;SDS011;6807;48.682;9.032;2022-11-20T20:07:33;1.48;;;1.38;;
13469;SDS011;6807;48.682;9.032;2022-11-20T20:10:00;1.35;;;1.25;;
13469;SDS011;6807;48.682;9.032;2022-11-20T20:12:28;1.30;;;1.30;;
13469;SDS011;6807;48.682;9.032;2022-11-20T20:14:56;1.17;;;1.13;;
13469;SDS011;6807;48.682;9.032;2022-11-20T20:17:23;1.10;;;1.10;;
13469;SDS011;6807;48.682;9.032;2022-11-20T20:19:51;1.40;;;1.30;;
13469;SDS011;6807;48.682;9.032;2022-11-20T20:22:18;1.55;;;1.40;;
13469;SDS011;6807;48.682;9.032;2022-11-20T20:24:45;1.33;;;1.30;;
13469;SDS011;6807;48.682;9.032;2022-11-20T20:27:13;1.33;;;1.20;;
13469;SDS011;6807;48.682;9.032;2022-11-20T20:29:46;1.35;;;1.25;;
13469;SDS011;6807;48.682;9.032;2022-11-20T20:32:15;1.48;;;1.38;;
13469;SDS011;6807;48.682;9.032;2022-11-20T20:34:42;1.30;;;1.30;;
13469;SDS011;6807;48.682;9.032;2022-11-20T20:37:09;1.40;;;1.30;;
13469;SDS011;6807;48.682;9.032;2022-11-20T20:39:37;1.40;;;1.30;;